Time;durP1;ratioP1;P1;durP2;ratioP2;P2;SDS_P1;SDS_P2;PMS_P1;PMS_P2;Temp;Humidity;BMP_temperature;BMP_pressure;BME280_temperature;BME280_humidity;BME280_pressure;Samples;Min_cycle;Max_cycle;Signal;HPM_P1;HPM_P2
2022/01/19 00:00:33;;;;;;;2.95;2.15;;;;;;;-6.62;65.80;99024.59;4683649;30;20088;-59
2022/01/19 00:02:59;;;;;;;5.28;2.00;;;;;;;-6.65;65.97;99043.75;4682623;30;20149;-57
2022/01/19 00:05:24;;;;;;;4.13;2.55;;;;;;;-6.69;66.67;99034.66;4683907;30;20050;-60
2022/01/19 00:07:50;;;;;;;4.85;2.22;;;;;;;-6.61;66.04;99044.28;4683891;30;20533;-60
2022/01/19 00:10:20;;;;;;;3.47;1.90;;;;;;;-6.68;65.48;99032.88;4683853;30;20046;-60
2022/01/19 00:12:45;;;;;;;2.72;1.65;;;;;;;-6.76;66.60;99028.41;4683641;30;20481;-58
2022/01/19 00:15:12;;;;;;;4.47;1.95;;;;;;;-6.75;65.87;99029.22;4683617;30;20065;-58
2022/01/19 00:17:38;;;;;;;4.18;1.90;;;;;;;-6.86;66.51;99014.69;4683669;30;20061;-59
2022/01/19 00:20:06;;;;;;;5.65;2.03;;;;;;;-6.79;66.81;99020.13;4682515;30;20053;-59
2022/01/19 00:22:32;;;;;;;2.80;2.03;;;;;;;-6.75;66.61;99024.06;4683693;30;20077;-58
2022/01/19 00:24:58;;;;;;;4.45;1.73;;;;;;;-6.89;66.43;99007.25;4682569;30;20046;-57
2022/01/19 00:27:24;;;;;;;2.03;1.70;;;;;;;-6.79;66.82;99010.66;4682209;30;20069;-59
2022/01/19 00:29:51;;;;;;;2.05;1.77;;;;;;;-6.75;66.80;99009.41;4682265;30;20078;-60
2022/01/19 00:32:16;;;;;;;4.18;2.00;;;;;;;-6.64;65.90;99005.91;4683327;30;20149;-58
2022/01/19 00:34:42;;;;;;;4.82;2.50;;;;;;;-6.51;66.02;99009.00;4682181;30;20064;-60
2022/01/19 00:37:08;;;;;;;1.70;1.60;;;;;;;-6.47;65.78;99001.78;4681902;30;20312;-59
2022/01/19 00:39:34;;;;;;;3.83;2.17;;;;;;;-6.58;66.17;98995.03;4682098;30;20058;-59
2022/01/19 00:42:00;;;;;;;2.63;1.77;;;;;;;-6.52;65.45;99002.22;4683141;30;20509;-56
2022/01/19 00:44:26;;;;;;;3.42;2.45;;;;;;;-6.58;65.74;98995.03;4682200;30;20086;-60
2022/01/19 00:46:52;;;;;;;4.18;2.10;;;;;;;-6.46;66.25;98996.50;4683259;30;20061;-58
2022/01/19 00:49:18;;;;;;;3.35;2.25;;;;;;;-6.44;65.72;98996.34;4683331;30;20054;-58
2022/01/19 00:51:44;;;;;;;3.95;2.05;;;;;;;-6.41;65.82;98994.34;4653296;30;20049;-59
2022/01/19 00:54:10;;;;;;;5.68;2.10;;;;;;;-6.42;65.63;98997.84;4682988;30;20058;-59
2022/01/19 00:56:35;;;;;;;1.90;1.50;;;;;;;-6.62;65.50;99001.41;4682749;30;20046;-59
2022/01/19 00:59:01;;;;;;;5.53;2.17;;;;;;;-6.73;66.54;98998.97;4683153;30;20050;-58
2022/01/19 01:01:27;;;;;;;3.80;1.80;;;;;;;-6.62;66.24;99003.97;4667090;30;20524;-59
2022/01/19 01:03:53;;;;;;;1.92;1.67;;;;;;;-6.69;65.91;99002.91;4683310;30;20088;-60
2022/01/19 01:06:19;;;;;;;2.70;1.83;;;;;;;-6.65;66.38;98999.09;4681851;30;20505;-59
2022/01/19 01:08:45;;;;;;;7.80;3.03;;;;;;;-6.70;66.35;98994.38;4681738;30;20071;-59
2022/01/19 01:11:11;;;;;;;3.67;1.95;;;;;;;-6.72;67.10;98996.25;4681573;30;20054;-60
2022/01/19 01:18:57;;;;;;;4.28;2.22;;;;;;;-6.59;65.75;98992.56;4681459;30;20058;-59
2022/01/19 01:21:23;;;;;;;4.28;1.83;;;;;;;-6.40;65.63;98997.72;4667102;30;20525;-60
2022/01/19 01:23:48;;;;;;;7.32;2.40;;;;;;;-6.46;65.90;98990.53;4682678;30;20089;-61
2022/01/19 01:26:14;;;;;;;3.75;2.10;;;;;;;-6.37;65.99;98992.28;4681272;30;20054;-59
2022/01/19 01:28:40;;;;;;;5.28;2.00;;;;;;;-6.48;65.28;99000.97;4682725;30;20046;-59
2022/01/19 01:31:09;;;;;;;3.63;1.80;;;;;;;-6.67;66.30;98998.44;4682107;30;20593;-58
2022/01/19 01:33:37;;;;;;;2.47;1.60;;;;;;;-6.60;65.82;98996.13;4667047;30;20194;-59
2022/01/19 01:36:03;;;;;;;6.03;2.45;;;;;;;-6.55;65.99;98991.38;4666869;30;20057;-59
2022/01/19 01:38:29;;;;;;;2.78;1.90;;;;;;;-6.40;65.33;99005.47;4680859;30;20558;-59
2022/01/19 01:40:55;;;;;;;7.43;2.70;;;;;;;-6.48;65.58;99003.56;4666654;30;20125;-57
2022/01/19 01:43:21;;;;;;;3.78;2.45;;;;;;;-6.57;65.56;99006.16;4682240;30;20050;-59
2022/01/19 01:45:52;;;;;;;3.05;1.50;;;;;;;-6.56;64.85;99003.44;4682258;30;20049;-58
2022/01/19 01:48:20;;;;;;;4.07;2.40;;;;;;;-6.57;65.08;99006.16;4680956;30;20066;-59
2022/01/19 01:53:47;;;;;;;4.65;2.05;;;;;;;-6.56;65.55;99007.78;4666748;30;20045;-58
2022/01/19 01:56:16;;;;;;;3.95;2.10;;;;;;;-6.43;65.25;99006.53;4681870;30;20061;-59
2022/01/19 01:58:44;;;;;;;6.05;2.13;;;;;;;-6.49;65.32;99011.44;4680976;30;20076;-57
2022/01/19 02:01:29;;;;;;;5.40;2.45;;;;;;;-6.46;65.16;99011.16;4681781;30;20065;-58
2022/01/19 02:03:58;;;;;;;4.72;2.67;;;;;;;-6.44;65.04;99001.50;4666929;30;20054;-58
2022/01/19 02:06:42;;;;;;;5.13;2.20;;;;;;;-6.49;64.88;99001.13;4680657;30;20460;-60
2022/01/19 02:09:19;;;;;;;5.90;1.90;;;;;;;-6.46;65.66;98996.50;4680894;30;20046;-60
2022/01/19 02:25:51;;;;;;;5.80;2.85;;;;;;;-6.61;65.85;99026.25;4680680;30;20081;-60
2022/01/19 02:41:48;;;;;;;4.88;2.83;;;;;;;-6.50;65.85;99033.00;4680342;30;20114;-57
2022/01/19 02:44:27;;;;;;;6.05;2.63;;;;;;;-6.57;65.46;99027.59;4665497;30;20136;-57
2022/01/19 02:49:28;;;;;;;3.58;2.65;;;;;;;-6.64;65.89;99027.34;4681268;30;20081;-58
2022/01/19 02:51:54;;;;;;;7.35;2.47;;;;;;;-6.62;65.61;99022.03;4679979;30;20502;-59
2022/01/19 02:54:22;;;;;;;6.78;3.03;;;;;;;-6.63;66.24;99031.53;4665854;30;20056;-57
2022/01/19 02:56:53;;;;;;;6.15;2.25;;;;;;;-6.60;66.37;99032.22;4679872;30;20538;-57
2022/01/19 03:10:23;;;;;;;5.30;2.67;;;;;;;-6.36;64.97;99021.47;4679926;30;20427;-59
2022/01/19 03:12:49;;;;;;;6.90;3.53;;;;;;;-6.37;65.93;99025.81;4681157;30;20422;-59
2022/01/19 03:15:15;;;;;;;6.93;3.65;;;;;;;-6.31;65.68;99024.44;4679863;30;20046;-59
2022/01/19 03:17:42;;;;;;;9.40;5.10;;;;;;;-6.29;65.71;99019.97;4679948;30;20062;-59
2022/01/19 03:20:09;;;;;;;9.82;4.40;;;;;;;-6.29;64.89;99022.56;4679898;30;20104;-60
2022/01/19 03:25:37;;;;;;;8.43;3.92;;;;;;;-6.51;65.10;99008.19;4679610;30;20064;-59
2022/01/19 03:28:05;;;;;;;4.35;2.45;;;;;;;-6.54;65.31;99006.69;4679805;30;20464;-60
2022/01/19 03:30:32;;;;;;;3.65;2.10;;;;;;;-6.61;65.13;99013.34;4665361;30;20108;-58
2022/01/19 03:32:58;;;;;;;6.00;2.70;;;;;;;-6.81;66.00;99014.31;4679512;30;20532;-58
2022/01/19 03:35:23;;;;;;;3.15;2.45;;;;;;;-6.83;65.78;99014.44;4680822;30;20085;-60
2022/01/19 03:37:49;;;;;;;4.55;3.10;;;;;;;-6.81;66.08;99011.72;4679363;30;20165;-58
2022/01/19 03:40:15;;;;;;;3.35;2.65;;;;;;;-6.76;65.85;99001.84;4665537;30;20140;-60
2022/01/19 03:42:41;;;;;;;9.13;3.40;;;;;;;-6.79;65.95;99010.66;4665435;30;20053;-59
2022/01/19 03:45:09;;;;;;;4.35;2.88;;;;;;;-6.78;66.08;99017.44;4679873;30;20042;-60
2022/01/19 03:47:41;;;;;;;5.45;2.92;;;;;;;-6.90;66.74;98998.69;4679560;30;20119;-59
2022/01/19 03:50:09;;;;;;;5.38;2.70;;;;;;;-6.97;66.67;99002.78;4680826;30;20145;-59
2022/01/19 03:52:35;;;;;;;6.45;2.95;;;;;;;-7.11;66.86;98996.25;4679458;30;20096;-59
2022/01/19 03:55:01;;;;;;;9.18;3.92;;;;;;;-7.25;67.23;98994.06;4681590;30;20057;-60
2022/01/19 03:57:27;;;;;;;11.30;6.80;;;;;;;-7.29;68.19;99003.00;4654116;30;20429;-58
2022/01/19 03:59:52;;;;;;;10.57;6.65;;;;;;;-7.27;68.62;99002.88;4683846;30;20049;-61
2022/01/19 04:02:19;;;;;;;5.25;3.10;;;;;;;-7.26;67.95;99007.06;4668351;30;20200;-59
2022/01/19 04:07:13;;;;;;;8.02;3.03;;;;;;;-7.13;68.18;99013.59;4682640;30;20111;-60
2022/01/19 04:09:43;;;;;;;6.07;3.08;;;;;;;-7.19;67.77;99023.63;4668123;30;20072;-58
2022/01/19 04:12:14;;;;;;;7.95;3.40;;;;;;;-7.27;68.66;99036.34;4668010;30;20062;-58
2022/01/19 04:14:40;;;;;;;12.05;6.55;;;;;;;-7.34;68.78;99030.91;4668310;30;20053;-60
2022/01/19 04:17:09;;;;;;;9.20;5.45;;;;;;;-7.26;67.77;99027.66;4682377;30;20075;-60
2022/01/19 04:19:44;;;;;;;5.88;3.53;;;;;;;-7.16;68.41;99020.78;4682236;30;20050;-60
2022/01/19 04:22:18;;;;;;;5.45;2.92;;;;;;;-7.01;67.37;99027.16;4668687;30;20549;-59
2022/01/19 04:24:46;;;;;;;5.82;3.40;;;;;;;-6.87;67.02;99033.69;4682300;30;20514;-59
2022/01/19 04:30:05;;;;;;;5.78;3.08;;;;;;;-6.78;66.34;99025.16;4682254;30;20434;-59
2022/01/19 04:35:25;;;;;;;7.80;3.42;;;;;;;-6.71;66.33;99035.72;4682360;30;20053;-60
2022/01/19 04:38:16;;;;;;;8.85;3.20;;;;;;;-6.77;66.63;99037.09;4681816;30;20074;-60
2022/01/19 05:07:45;;;;;;;4.88;2.80;;;;;;;-6.80;67.10;99003.84;4682543;30;20065;-63
2022/01/19 05:15:41;;;;;;;3.15;2.17;;;;;;;-6.95;66.64;98992.31;4667079;30;20422;-62
2022/01/19 05:18:11;;;;;;;5.18;3.00;;;;;;;-7.05;67.18;98997.47;4681348;30;20438;-62
2022/01/19 05:20:38;;;;;;;6.28;2.95;;;;;;;-7.07;67.30;98988.25;4666878;30;20050;-63
2022/01/19 05:23:04;;;;;;;3.95;2.53;;;;;;;-7.09;67.90;98988.38;4638537;30;20145;-61
2022/01/19 05:25:30;;;;;;;8.38;2.92;;;;;;;-7.15;68.27;98989.72;4681232;30;20053;-64
2022/01/19 05:28:07;;;;;;;5.45;2.85;;;;;;;-7.12;68.47;98983.50;4681272;30;20097;-60
2022/01/19 05:30:33;;;;;;;5.18;2.65;;;;;;;-7.12;67.83;98994.63;4667088;30;20049;-63
2022/01/19 05:33:01;;;;;;;4.65;2.80;;;;;;;-7.18;68.47;98997.72;4681094;30;20058;-60
2022/01/19 05:35:30;;;;;;;5.38;2.90;;;;;;;-7.14;68.37;98996.53;4680907;30;20050;-60
2022/01/19 05:38:14;;;;;;;8.20;2.55;;;;;;;-7.05;67.86;98992.31;4681920;30;20169;-61
2022/01/19 05:40:53;;;;;;;4.45;2.88;;;;;;;-7.04;68.48;98995.72;4682097;30;20068;-61
2022/01/19 05:43:19;;;;;;;4.55;2.80;;;;;;;-7.11;67.97;98993.69;4678243;30;20054;-58
2022/01/19 05:45:45;;;;;;;4.97;3.08;;;;;;;-7.18;67.82;98997.72;4676828;30;20049;-60
2022/01/19 05:48:15;;;;;;;7.40;2.58;;;;;;;-7.18;67.99;98996.91;4665261;30;20068;-59
2022/01/19 05:50:45;;;;;;;7.60;2.90;;;;;;;-7.07;67.82;99001.13;4678495;30;20556;-60
2022/01/19 05:53:16;;;;;;;5.18;2.60;;;;;;;-6.96;67.67;98999.25;4651704;30;20077;-59
2022/01/19 05:55:42;;;;;;;7.28;3.05;;;;;;;-6.83;67.57;99003.31;4679605;30;20061;-61
2022/01/19 05:58:08;;;;;;;11.23;3.47;;;;;;;-6.82;67.29;98992.88;4680999;30;20153;-60
2022/01/19 06:00:34;;;;;;;6.47;3.22;;;;;;;-6.76;67.05;98997.50;4678159;30;20133;-61
2022/01/19 06:02:59;;;;;;;4.97;3.17;;;;;;;-6.85;67.18;98995.72;4680391;30;20054;-59
2022/01/19 06:05:45;;;;;;;5.60;3.25;;;;;;;-6.72;67.13;99001.41;4679438;30;20560;-60
2022/01/19 06:11:00;;;;;;;8.02;3.97;;;;;;;-6.63;66.77;98999.78;4678266;30;20124;-59
2022/01/19 06:13:26;;;;;;;6.68;3.65;;;;;;;-6.54;66.66;99003.31;4677150;30;20058;-60
2022/01/19 06:15:52;;;;;;;5.57;3.47;;;;;;;-6.48;66.37;98993.25;4663827;30;20103;-60
2022/01/19 06:18:19;;;;;;;7.72;3.45;;;;;;;-6.44;66.25;98986.03;4661780;30;20058;-59
2022/01/19 06:20:45;;;;;;;4.60;3.22;;;;;;;-6.40;66.44;98987.41;4677412;30;20082;-60
2022/01/19 06:23:14;;;;;;;6.07;3.63;;;;;;;-6.40;65.82;98977.91;4664034;30;20112;-60
2022/01/19 06:25:51;;;;;;;5.10;3.67;;;;;;;-6.30;66.16;98990.75;4678065;30;20054;-61
2022/01/19 06:28:17;;;;;;;6.82;3.55;;;;;;;-6.25;65.66;98986.00;4677817;30;20435;-63
2022/01/19 06:30:43;;;;;;;7.90;3.67;;;;;;;-6.26;65.80;98989.53;4673866;30;20046;-60
2022/01/19 06:33:08;;;;;;;5.82;3.67;;;;;;;-6.36;65.70;98991.31;4664418;30;20053;-61
2022/01/19 06:35:35;;;;;;;6.07;3.67;;;;;;;-6.32;65.43;98989.28;4677617;30;20042;-59
2022/01/19 06:38:24;;;;;;;4.53;2.85;;;;;;;-6.30;65.27;98998.50;4654395;30;20081;-59
2022/01/19 06:40:54;;;;;;;6.03;3.55;;;;;;;-6.26;65.65;99001.63;4678616;30;20518;-59
2022/01/19 06:43:19;;;;;;;7.40;3.42;;;;;;;-6.35;65.97;98995.53;4677207;30;20072;-54
2022/01/19 06:45:45;;;;;;;5.72;2.97;;;;;;;-6.41;65.78;98996.91;4663343;30;20057;-57
2022/01/19 06:48:11;;;;;;;7.90;3.40;;;;;;;-6.38;65.85;98990.66;4637955;30;20080;-60
2022/01/19 06:50:37;;;;;;;13.63;7.53;;;;;;;-6.34;65.83;98986.03;4650532;30;20053;-62
2022/01/19 06:53:04;;;;;;;8.63;5.68;;;;;;;-6.30;65.77;98987.38;4653619;30;20533;-61
2022/01/19 06:55:30;;;;;;;9.57;5.47;;;;;;;-6.30;65.17;98971.91;4678360;30;20058;-61
2022/01/19 06:57:58;;;;;;;6.53;3.13;;;;;;;-6.35;66.18;98951.69;4674906;30;20124;-58
2022/01/19 07:00:42;;;;;;;6.72;3.33;;;;;;;-6.33;65.29;98964.44;4676644;30;20137;-60
2022/01/19 07:03:14;;;;;;;8.50;5.05;;;;;;;-6.26;65.03;98971.50;4676994;30;20212;-60
2022/01/19 07:05:55;;;;;;;7.13;4.43;;;;;;;-6.25;65.48;98967.13;4674285;30;20092;-61
2022/01/19 07:08:30;;;;;;;8.07;4.00;;;;;;;-6.47;65.58;98960.53;4676929;30;20062;-61
2022/01/19 07:10:56;;;;;;;7.38;4.38;;;;;;;-6.50;65.46;98971.13;4662676;30;20054;-61
2022/01/19 07:13:22;;;;;;;8.70;3.42;;;;;;;-6.60;66.24;98957.44;4665135;30;20453;-60
2022/01/19 07:15:48;;;;;;;7.55;3.35;;;;;;;-6.57;65.84;98967.47;4662114;30;20537;-60
2022/01/19 07:18:14;;;;;;;6.78;3.88;;;;;;;-6.64;65.71;98959.50;4677944;30;20068;-61
2022/01/19 07:20:40;;;;;;;6.70;3.22;;;;;;;-6.96;67.07;98965.75;4674648;30;20058;-59
2022/01/19 07:23:06;;;;;;;7.18;3.53;;;;;;;-6.97;66.94;98958.13;4677519;30;20061;-60
2022/01/19 07:25:32;;;;;;;7.35;3.75;;;;;;;-6.90;67.25;98946.34;4676160;30;20107;-60
2022/01/19 07:27:58;;;;;;;7.53;3.22;;;;;;;-6.79;66.75;98945.38;4662025;30;20061;-61
2022/01/19 07:30:25;;;;;;;5.07;3.75;;;;;;;-6.81;65.88;98942.94;4679078;30;20461;-61
2022/01/19 07:32:52;;;;;;;12.80;4.03;;;;;;;-6.89;66.85;98951.34;4666262;30;20096;-60
2022/01/19 07:35:19;;;;;;;6.35;3.17;;;;;;;-6.98;67.22;98944.44;4647889;30;20054;-60
2022/01/19 07:37:48;;;;;;;9.60;3.55;;;;;;;-6.90;66.42;98943.78;4650704;30;20081;-59
2022/01/19 07:40:14;;;;;;;9.60;3.63;;;;;;;-6.80;66.77;98942.00;4664688;30;20065;-60
2022/01/19 07:42:41;;;;;;;9.02;4.43;;;;;;;-6.84;67.04;98942.41;4660611;30;20063;-59
2022/01/19 07:45:07;;;;;;;6.88;2.85;;;;;;;-6.76;66.22;98938.22;4663143;30;20146;-60
2022/01/19 07:48:08;;;;;;;5.80;3.10;;;;;;;-6.61;65.72;98933.44;4639799;30;20055;-59
2022/01/19 07:50:52;;;;;;;8.73;3.20;;;;;;;-6.60;66.28;98936.81;4662716;30;20063;-61
2022/01/19 07:53:38;;;;;;;9.88;3.67;;;;;;;-6.69;65.94;98926.38;4664499;30;20062;-59
2022/01/19 07:56:22;;;;;;;18.23;4.10;;;;;;;-6.65;66.59;98922.59;4675205;30;20105;-60
2022/01/19 07:59:14;;;;;;;7.50;4.30;;;;;;;-6.78;66.29;98921.25;4678318;30;20066;-60
2022/01/19 08:01:49;;;;;;;8.35;4.25;;;;;;;-6.91;66.79;98912.06;4681637;30;20058;-59
2022/01/19 08:04:37;;;;;;;10.32;4.22;;;;;;;-6.74;66.30;98905.34;4682859;30;20410;-60
2022/01/19 08:07:03;;;;;;;9.73;4.75;;;;;;;-6.66;66.58;98895.16;4681826;30;20052;-61
2022/01/19 08:09:31;;;;;;;16.00;6.68;;;;;;;-6.55;65.90;98898.56;4668864;30;20085;-60
2022/01/19 08:11:57;;;;;;;11.70;4.68;;;;;;;-6.50;65.51;98910.06;4662936;30;20153;-60
2022/01/19 08:14:27;;;;;;;7.45;4.07;;;;;;;-6.46;65.11;98901.09;4664507;30;20058;-59
2022/01/19 08:16:54;;;;;;;7.28;4.15;;;;;;;-6.54;65.26;98903.56;4652658;30;20071;-59
2022/01/19 08:19:22;;;;;;;12.02;5.20;;;;;;;-6.58;66.51;98899.63;4661191;30;20433;-62
2022/01/19 08:21:48;;;;;;;8.52;5.20;;;;;;;-6.43;65.30;98908.53;4661561;30;20121;-60
2022/01/19 08:24:16;;;;;;;11.25;5.05;;;;;;;-6.34;65.44;98899.16;4671699;30;20513;-59
2022/01/19 08:26:44;;;;;;;9.93;6.15;;;;;;;-6.34;64.42;98903.50;4650202;30;20140;-60
2022/01/19 08:29:16;;;;;;;13.48;5.65;;;;;;;-6.25;64.52;98903.47;4672281;30;20088;-58
2022/01/19 08:31:43;;;;;;;8.88;4.72;;;;;;;-6.16;64.16;98904.38;4675566;30;20042;-58
2022/01/19 08:34:09;;;;;;;10.43;4.25;;;;;;;-5.98;63.93;98909.59;4679395;30;20195;-59
2022/01/19 08:36:54;;;;;;;10.07;4.10;;;;;;;-5.92;63.55;98901.25;4676768;30;20130;-59
2022/01/19 08:39:24;;;;;;;11.63;4.70;;;;;;;-5.86;63.55;98890.34;4679101;30;20093;-60
2022/01/19 08:41:51;;;;;;;7.25;4.25;;;;;;;-5.80;63.29;98883.78;4663919;30;20197;-60
2022/01/19 08:44:20;;;;;;;7.25;4.30;;;;;;;-5.67;62.92;98883.44;4663714;30;20049;-60
2022/01/19 08:46:53;;;;;;;9.00;4.15;;;;;;;-5.55;62.78;98877.91;4678118;30;20054;-59
2022/01/19 08:49:39;;;;;;;7.55;4.22;;;;;;;-5.39;62.40;98876.44;4669718;30;20580;-58
2022/01/19 08:52:25;;;;;;;8.77;4.45;;;;;;;-5.44;61.99;98861.41;4662672;30;20077;-60
2022/01/19 08:55:06;;;;;;;8.68;4.38;;;;;;;-5.27;62.32;98868.31;4649364;30;20061;-59
2022/01/19 08:57:32;;;;;;;13.68;5.05;;;;;;;-5.20;61.81;98857.41;4677124;30;20136;-60
2022/01/19 08:59:58;;;;;;;6.60;4.18;;;;;;;-5.07;61.72;98844.88;4680220;30;20134;-61
2022/01/19 09:02:24;;;;;;;8.68;4.45;;;;;;;-4.82;60.55;98838.94;4662909;30;20058;-60
2022/01/19 09:04:50;;;;;;;10.35;4.80;;;;;;;-4.70;60.65;98838.69;4664211;30;20074;-62
2022/01/19 09:07:17;;;;;;;7.18;4.35;;;;;;;-4.56;59.23;98840.66;4663691;30;20058;-60
2022/01/19 09:09:43;;;;;;;8.50;4.43;;;;;;;-4.48;58.91;98845.88;4668810;30;20077;-60
2022/01/19 09:12:09;;;;;;;7.18;3.72;;;;;;;-4.30;59.49;98845.81;4679906;30;20085;-60
2022/01/19 09:14:35;;;;;;;7.72;4.15;;;;;;;-4.17;59.16;98835.84;4668054;30;20042;-60
2022/01/19 09:17:01;;;;;;;7.85;4.03;;;;;;;-3.97;58.26;98841.56;4663449;30;20407;-60
2022/01/19 09:19:27;;;;;;;6.72;3.72;;;;;;;-3.89;57.01;98828.63;4664187;30;20046;-58
2022/01/19 09:21:55;;;;;;;7.32;4.00;;;;;;;-3.69;56.92;98838.72;4663998;30;20672;-61
2022/01/19 09:24:21;;;;;;;9.05;3.90;;;;;;;-3.49;56.17;98841.81;4663646;30;20046;-60
2022/01/19 09:26:47;;;;;;;9.82;4.00;;;;;;;-3.40;55.36;98843.44;4662997;30;20058;-60
2022/01/19 09:29:13;;;;;;;7.35;3.58;;;;;;;-3.31;55.01;98847.66;4662823;30;20486;-61
2022/01/19 09:31:41;;;;;;;6.03;3.60;;;;;;;-3.47;55.29;98851.06;4647869;30;20065;-60
2022/01/19 09:34:10;;;;;;;7.43;3.65;;;;;;;-3.37;54.83;98831.97;4665165;30;20105;-59
2022/01/19 09:36:44;;;;;;;6.10;3.58;;;;;;;-3.28;54.24;98846.53;4663431;30;20069;-60
2022/01/19 09:39:12;;;;;;;8.70;3.45;;;;;;;-3.22;54.96;98841.50;4663670;30;20149;-61
2022/01/19 09:41:38;;;;;;;6.20;3.65;;;;;;;-3.11;53.17;98852.53;4675698;30;20056;-60
2022/01/19 09:44:04;;;;;;;7.32;3.58;;;;;;;-3.04;53.78;98846.53;4679960;30;20096;-62
2022/01/19 09:46:30;;;;;;;6.95;3.47;;;;;;;-3.01;53.32;98851.38;4678342;30;20110;-61
2022/01/19 09:48:58;;;;;;;10.13;4.20;;;;;;;-3.10;54.00;98848.97;4678752;30;20136;-61
2022/01/19 09:51:24;;;;;;;6.95;3.40;;;;;;;-2.98;53.63;98840.69;4678850;30;20060;-59
2022/01/19 09:53:50;;;;;;;7.10;3.40;;;;;;;-2.91;53.03;98840.03;4664755;30;20054;-60
2022/01/19 09:56:18;;;;;;;7.97;3.58;;;;;;;-3.18;53.11;98836.78;4678188;30;20050;-60
2022/01/19 09:58:44;;;;;;;9.30;4.07;;;;;;;-3.34;54.75;98839.41;4678071;30;20096;-61
2022/01/19 10:01:10;;;;;;;10.00;4.32;;;;;;;-3.23;54.09;98828.72;4677588;30;20081;-60
2022/01/19 10:03:36;;;;;;;8.98;3.65;;;;;;;-3.20;53.34;98836.97;4672317;30;20042;-60
2022/01/19 10:06:09;;;;;;;7.78;3.40;;;;;;;-3.17;54.61;98837.63;4661330;30;20057;-61
2022/01/19 10:08:35;;;;;;;6.97;3.65;;;;;;;-2.90;53.29;98839.06;4661702;30;20058;-59
2022/01/19 10:17:06;;;;;;;6.63;3.75;;;;;;;-2.88;53.52;98819.78;4679271;30;20068;-60
2022/01/19 10:19:42;;;;;;;11.95;3.88;;;;;;;-2.93;52.95;98816.06;4678876;30;20054;-60
2022/01/19 10:22:13;;;;;;;6.38;2.92;;;;;;;-2.69;53.71;98815.19;4679244;30;20093;-61
2022/01/19 10:24:53;;;;;;;8.15;3.63;;;;;;;-2.78;52.55;98822.19;4646923;30;20042;-59
2022/01/19 10:27:38;;;;;;;10.45;3.78;;;;;;;-2.82;53.35;98811.34;4662847;30;20411;-59
2022/01/19 10:30:04;;;;;;;5.30;3.42;;;;;;;-2.65;53.16;98806.09;4662372;30;20062;-58
2022/01/19 10:32:46;;;;;;;9.05;4.32;;;;;;;-2.46;52.52;98794.53;4667097;30;20512;-60
2022/01/19 10:35:21;;;;;;;10.48;5.00;;;;;;;-2.33;52.67;98789.59;4654787;30;20425;-60
2022/01/19 10:38:16;;;;;;;8.15;4.80;;;;;;;-2.13;51.95;98792.59;4657051;30;20078;-60
2022/01/19 10:40:54;;;;;;;11.10;4.53;;;;;;;-2.11;52.38;98791.44;4674184;30;20074;-59
2022/01/19 10:43:33;;;;;;;10.07;4.30;;;;;;;-1.96;51.85;98786.31;4677779;30;20106;-59
2022/01/19 10:46:20;;;;;;;11.02;4.57;;;;;;;-1.93;52.10;98803.34;4662530;30;20062;-61
2022/01/19 10:48:46;;;;;;;8.20;4.35;;;;;;;-2.00;51.46;98794.63;4649251;30;20058;-60
2022/01/19 10:51:14;;;;;;;8.45;4.13;;;;;;;-1.99;51.50;98796.25;4663333;30;20050;-61
2022/01/19 10:53:46;;;;;;;6.38;4.13;;;;;;;-2.01;52.12;98796.41;4662913;30;20058;-60
2022/01/19 10:56:25;;;;;;;6.85;3.83;;;;;;;-2.21;51.99;98785.63;4666835;30;20057;-60
2022/01/19 10:58:57;;;;;;;11.77;4.82;;;;;;;-2.24;52.59;98792.97;4650464;30;20233;-61
2022/01/19 11:01:37;;;;;;;8.98;4.30;;;;;;;-2.13;52.88;98785.59;4675752;30;20046;-60
2022/01/19 11:04:19;;;;;;;8.43;4.00;;;;;;;-2.22;52.52;98780.63;4667865;30;20480;-60
2022/01/19 11:06:47;;;;;;;7.45;3.50;;;;;;;-2.26;52.38;98787.13;4680696;30;20046;-61
2022/01/19 11:09:14;;;;;;;6.80;3.47;;;;;;;-2.19;52.12;98780.28;4654413;30;20430;-60
2022/01/19 11:11:44;;;;;;;18.30;3.92;;;;;;;-2.16;52.58;98779.94;4655729;30;20056;-59
2022/01/19 11:14:15;;;;;;;6.57;4.03;;;;;;;-2.38;52.08;98774.53;4668079;30;20062;-58
2022/01/19 11:16:43;;;;;;;7.70;3.75;;;;;;;-2.28;53.40;98777.72;4665557;30;20438;-58
2022/01/19 11:19:12;;;;;;;9.88;3.72;;;;;;;-2.19;53.08;98772.50;4679857;30;20049;-60
2022/01/19 11:21:52;;;;;;;11.80;4.63;;;;;;;-2.15;52.73;98778.94;4678366;30;20042;-59
2022/01/19 11:25:09;;;;;;;10.98;4.68;;;;;;;-2.04;53.34;98783.75;4663684;30;20046;-60
2022/01/19 11:27:41;;;;;;;8.77;4.03;;;;;;;-2.16;53.51;98785.13;4665627;30;20129;-59
2022/01/19 11:30:11;;;;;;;8.38;4.47;;;;;;;-2.21;52.84;98777.84;4637424;30;20085;-58
2022/01/19 11:32:37;;;;;;;11.13;4.43;;;;;;;-2.34;53.34;98769.81;4666352;30;20054;-59
2022/01/19 11:35:04;;;;;;;7.25;3.67;;;;;;;-2.36;53.27;98772.56;4679791;30;20045;-60
2022/01/19 11:37:41;;;;;;;11.38;4.32;;;;;;;-2.37;53.93;98763.16;4682598;30;20066;-61
2022/01/19 11:40:16;;;;;;;9.13;4.18;;;;;;;-2.35;54.46;98750.03;4684815;30;20133;-59
2022/01/19 11:42:42;;;;;;;10.02;4.10;;;;;;;-2.18;53.86;98751.53;4683555;30;20053;-60
2022/01/19 11:45:11;;;;;;;8.07;4.10;;;;;;;-2.27;53.27;98742.19;4683905;30;20049;-60
2022/01/19 11:47:38;;;;;;;8.63;4.50;;;;;;;-2.22;52.99;98746.88;4682204;30;20092;-61
2022/01/19 11:50:04;;;;;;;6.43;3.92;;;;;;;-2.23;53.24;98747.88;4683371;30;20073;-60
2022/01/19 11:52:38;;;;;;;10.95;3.58;;;;;;;-2.17;53.14;98745.38;4683482;30;20563;-61
2022/01/19 11:55:18;;;;;;;7.32;3.60;;;;;;;-2.10;53.30;98737.72;4684036;30;20064;-60
2022/01/19 11:57:45;;;;;;;7.47;3.60;;;;;;;-2.04;52.38;98725.81;4672232;30;20585;-59
2022/01/19 12:00:12;;;;;;;7.47;3.88;;;;;;;-2.34;52.74;98729.06;4683479;30;20054;-59
2022/01/19 12:02:42;;;;;;;7.88;4.07;;;;;;;-2.39;53.68;98728.78;4675693;30;20077;-59
2022/01/19 12:05:11;;;;;;;9.48;4.00;;;;;;;-2.27;52.87;98731.78;4667306;30;20050;-59
2022/01/19 12:07:52;;;;;;;6.40;3.63;;;;;;;-2.43;53.83;98724.91;4669838;30;20058;-59
2022/01/19 12:10:37;;;;;;;6.97;3.90;;;;;;;-2.47;54.03;98720.22;4682322;30;20112;-60
2022/01/19 12:13:57;;;;;;;6.28;3.85;;;;;;;-2.48;53.83;98718.63;4682367;30;20057;-60
2022/01/19 12:19:07;;;;;;;8.15;3.88;;;;;;;-2.24;53.57;98705.50;4678775;30;20050;-59
2022/01/19 12:21:54;;;;;;;7.70;3.63;;;;;;;-2.16;54.14;98713.22;4679674;30;20081;-59
2022/01/19 12:24:41;;;;;;;5.63;2.92;;;;;;;-2.12;53.68;98701.53;4680989;30;20057;-59
2022/01/19 12:27:13;;;;;;;8.82;4.05;;;;;;;-2.16;53.43;98697.66;4664043;30;20062;-60
2022/01/19 12:29:43;;;;;;;6.90;3.53;;;;;;;-2.28;54.28;98697.25;4671838;30;20046;-60
2022/01/19 12:32:18;;;;;;;8.85;3.85;;;;;;;-2.35;54.25;98695.53;4675422;30;20049;-60
2022/01/19 12:34:47;;;;;;;8.00;4.22;;;;;;;-2.54;54.71;98704.53;4672940;30;20046;-59
2022/01/19 12:37:15;;;;;;;11.05;4.57;;;;;;;-2.58;55.34;98692.88;4682591;30;20430;-60
2022/01/19 12:39:43;;;;;;;6.82;4.03;;;;;;;-2.68;55.70;98687.88;4680549;30;20050;-57
2022/01/19 12:42:20;;;;;;;9.82;3.58;;;;;;;-2.70;55.28;98678.69;4681789;30;20709;-58
2022/01/19 12:44:49;;;;;;;7.30;3.92;;;;;;;-2.71;56.67;98671.84;4678123;30;20418;-60
2022/01/19 12:47:24;;;;;;;8.40;3.72;;;;;;;-2.61;56.02;98664.69;4675615;30;20057;-61
2022/01/19 12:50:08;;;;;;;10.48;4.63;;;;;;;-2.73;55.86;98660.84;4668795;30;20093;-61
2022/01/19 12:52:42;;;;;;;7.95;3.70;;;;;;;-2.76;56.05;98662.81;4662147;30;20059;-62
2022/01/19 12:55:20;;;;;;;10.02;4.00;;;;;;;-2.78;56.84;98661.34;4662700;30;20441;-61
2022/01/19 12:57:48;;;;;;;9.18;4.78;;;;;;;-2.73;56.83;98669.44;4675691;30;20050;-60
2022/01/19 13:00:17;;;;;;;9.68;3.60;;;;;;;-2.85;56.91;98663.81;4677423;30;20073;-61
2022/01/19 13:02:42;;;;;;;7.53;3.67;;;;;;;-2.86;57.75;98661.38;4679889;30;20050;-60
2022/01/19 13:05:12;;;;;;;8.15;3.72;;;;;;;-2.69;58.15;98662.13;4677878;30;20068;-61
2022/01/19 13:07:39;;;;;;;9.45;3.35;;;;;;;-2.63;57.54;98666.63;4678103;30;20509;-61
2022/01/19 13:12:59;;;;;;;7.85;3.67;;;;;;;-3.01;58.95;98677.66;4662249;30;20141;-59
2022/01/19 13:15:38;;;;;;;6.88;3.30;;;;;;;-3.07;59.95;98687.88;4661463;30;20382;-60
2022/01/19 13:18:04;;;;;;;6.32;3.10;;;;;;;-3.03;60.75;98684.81;4663539;30;20081;-60
2022/01/19 13:20:31;;;;;;;8.05;3.47;;;;;;;-3.01;61.22;98677.66;4662680;30;20050;-61
2022/01/19 13:22:57;;;;;;;9.30;3.75;;;;;;;-3.06;61.52;98677.34;4677062;30;20540;-61
2022/01/19 13:25:28;;;;;;;7.22;3.92;;;;;;;-3.05;61.78;98672.97;4677382;30;20053;-62
2022/01/19 13:27:56;;;;;;;6.10;3.30;;;;;;;-3.05;62.62;98668.59;4676867;30;20054;-61
2022/01/19 13:30:28;;;;;;;7.32;3.55;;;;;;;-2.92;62.11;98678.41;4677099;30;20046;-61
2022/01/19 13:32:54;;;;;;;7.10;3.55;;;;;;;-2.88;60.59;98668.50;4679866;30;20194;-62